Portada
METAR-TAF:

METAR-TAF

Aeropuertos :

Fuerteventura, España

Aeropuerto de Fuerteventura

latitud: 28-27N, longitud: 013-52W, altitud: 22 m

Observación

El informe se hizo hace 42 minutos, a las 12:00 UTC
Viento 9 kt del oeste con ráfagas de 24 kt, variando entre sur-suroeste y norte-noroeste
Temperatura 23°C
Humedad 57%
Presión 1015 hPa
Visibilidad 10 km o más
Nubes dispersas a una altura de 4000 ft

METAR: GCFV 151200Z 27009G24KT 210V330 9999 SCT040 23/14 Q1015

Hora: 12:42 (12:42 UTC)

Pronóstico

El informe se hizo hace 4 horas y 42 minutos, a las 08:00 UTC
Pronóstico válido del 15 a las 09 UTC al 16 a las 09 UTC
Viento 10 kt del oeste-noroeste
Visibilidad 10 km o más
Escasas nubes a una altura de 3500 ft
Temporalmente
del 15 a las 12 UTC al 15 a las 16 UTC
Escasas nubes a una altura de 3000 ft, Cumulus congestus.
chaparrones de lluvia

TAF: GCFV 150800Z 1509/1609 29010KT 9999 FEW035 TX23/1514Z TN16/1606Z TEMPO 1512/1516 SHRA FEW030TCU

Observaciones y pronósticos meteorológicos de más de 4000 aeropuertos (mensajes METAR y TAF).

Los puntos amarillos y rojos representan las estaciones disponibles.

Ponga el ratón en el punto deseado para ver el nombre de la estación.

Haga clic para ver las observaciones y los pronósticos meteorológicos.

Para cambiar el mapa : haga clic en los botones verdes con una cruz de color negro para hacer un zoom, en el botón verde con un guión para alejar o en las flechas verdes para mapas adyacentes.


METAR-TAF: